sensor_id;sensor_type;location;lat;lon;timestamp;temperature;humidity
31309;DHT22;17936;52.446;10.840;2023-03-09T00:00:34;0.40;99.90
31309;DHT22;17936;52.446;10.840;2023-03-09T00:03:00;0.40;99.90
31309;DHT22;17936;52.446;10.840;2023-03-09T00:05:26;0.40;99.90
31309;DHT22;17936;52.446;10.840;2023-03-09T00:07:53;0.40;99.90
31309;DHT22;17936;52.446;10.840;2023-03-09T00:10:20;0.40;99.90
31309;DHT22;17936;52.446;10.840;2023-03-09T00:12:45;0.40;99.90
31309;DHT22;17936;52.446;10.840;2023-03-09T00:15:11;0.40;99.90
31309;DHT22;17936;52.446;10.840;2023-03-09T00:17:37;0.40;99.90
31309;DHT22;17936;52.446;10.840;2023-03-09T00:20:04;0.40;99.90
31309;DHT22;17936;52.446;10.840;2023-03-09T00:22:46;0.40;99.90
31309;DHT22;17936;52.446;10.840;2023-03-09T00:25:12;0.40;99.90
31309;DHT22;17936;52.446;10.840;2023-03-09T00:27:42;0.30;99.90
31309;DHT22;17936;52.446;10.840;2023-03-09T00:30:09;0.40;99.90
31309;DHT22;17936;52.446;10.840;2023-03-09T00:32:35;0.40;99.90
31309;DHT22;17936;52.446;10.840;2023-03-09T00:35:01;0.40;99.90
31309;DHT22;17936;52.446;10.840;2023-03-09T00:37:26;0.30;99.90
31309;DHT22;17936;52.446;10.840;2023-03-09T00:39:52;0.30;99.90
31309;DHT22;17936;52.446;10.840;2023-03-09T00:42:17;0.30;99.90
31309;DHT22;17936;52.446;10.840;2023-03-09T00:44:43;0.30;99.90
31309;DHT22;17936;52.446;10.840;2023-03-09T00:47:08;0.30;99.90
31309;DHT22;17936;52.446;10.840;2023-03-09T00:49:34;0.30;99.90
31309;DHT22;17936;52.446;10.840;2023-03-09T00:52:00;0.30;99.90
31309;DHT22;17936;52.446;10.840;2023-03-09T00:54:25;0.30;99.90
31309;DHT22;17936;52.446;10.840;2023-03-09T00:56:51;0.30;99.90
31309;DHT22;17936;52.446;10.840;2023-03-09T00:59:16;0.30;99.90
31309;DHT22;17936;52.446;10.840;2023-03-09T01:01:42;0.20;99.90
31309;DHT22;17936;52.446;10.840;2023-03-09T01:04:08;0.20;99.90
31309;DHT22;17936;52.446;10.840;2023-03-09T01:06:33;0.30;99.90
31309;DHT22;17936;52.446;10.840;2023-03-09T01:08:59;0.30;99.90
31309;DHT22;17936;52.446;10.840;2023-03-09T01:11:25;0.30;99.90
31309;DHT22;17936;52.446;10.840;2023-03-09T01:13:52;0.20;99.90
31309;DHT22;17936;52.446;10.840;2023-03-09T01:16:17;0.20;99.90
31309;DHT22;17936;52.446;10.840;2023-03-09T01:18:43;0.30;99.90
31309;DHT22;17936;52.446;10.840;2023-03-09T01:21:09;0.20;99.90
31309;DHT22;17936;52.446;10.840;2023-03-09T01:23:37;0.20;99.90
31309;DHT22;17936;52.446;10.840;2023-03-09T01:26:03;0.30;99.90
31309;DHT22;17936;52.446;10.840;2023-03-09T01:28:29;0.20;99.90
31309;DHT22;17936;52.446;10.840;2023-03-09T01:30:55;0.20;99.90
31309;DHT22;17936;52.446;10.840;2023-03-09T01:33:21;0.20;99.90
31309;DHT22;17936;52.446;10.840;2023-03-09T01:35:46;0.20;99.90
31309;DHT22;17936;52.446;10.840;2023-03-09T01:38:12;0.20;99.90
31309;DHT22;17936;52.446;10.840;2023-03-09T01:40:38;0.20;99.90
31309;DHT22;17936;52.446;10.840;2023-03-09T01:43:33;0.20;99.90
31309;DHT22;17936;52.446;10.840;2023-03-09T01:49:01;0.20;99.90
31309;DHT22;17936;52.446;10.840;2023-03-09T01:51:39;0.20;99.90
31309;DHT22;17936;52.446;10.840;2023-03-09T01:54:07;0.20;99.90
31309;DHT22;17936;52.446;10.840;2023-03-09T01:56:36;0.20;99.90
31309;DHT22;17936;52.446;10.840;2023-03-09T01:59:04;0.20;99.90
31309;DHT22;17936;52.446;10.840;2023-03-09T02:01:30;0.20;99.90
31309;DHT22;17936;52.446;10.840;2023-03-09T02:04:00;0.20;99.90
31309;DHT22;17936;52.446;10.840;2023-03-09T02:06:29;0.20;99.90
31309;DHT22;17936;52.446;10.840;2023-03-09T02:11:34;0.20;99.90
31309;DHT22;17936;52.446;10.840;2023-03-09T02:14:00;0.20;99.90
31309;DHT22;17936;52.446;10.840;2023-03-09T02:16:27;0.20;99.90
31309;DHT22;17936;52.446;10.840;2023-03-09T02:18:52;0.20;99.90
31309;DHT22;17936;52.446;10.840;2023-03-09T02:24:40;0.20;99.90
31309;DHT22;17936;52.446;10.840;2023-03-09T02:27:16;0.20;99.90
31309;DHT22;17936;52.446;10.840;2023-03-09T02:29:43;0.20;99.90
31309;DHT22;17936;52.446;10.840;2023-03-09T02:32:09;0.20;99.90
31309;DHT22;17936;52.446;10.840;2023-03-09T02:34:35;0.20;99.90
31309;DHT22;17936;52.446;10.840;2023-03-09T02:37:01;0.20;99.90
31309;DHT22;17936;52.446;10.840;2023-03-09T02:39:37;0.20;99.90
31309;DHT22;17936;52.446;10.840;2023-03-09T02:42:04;0.20;99.90
31309;DHT22;17936;52.446;10.840;2023-03-09T02:44:31;0.20;99.90
31309;DHT22;17936;52.446;10.840;2023-03-09T02:47:10;0.20;99.90
31309;DHT22;17936;52.446;10.840;2023-03-09T02:49:38;0.20;99.90
31309;DHT22;17936;52.446;10.840;2023-03-09T02:52:04;0.20;99.90
31309;DHT22;17936;52.446;10.840;2023-03-09T02:54:30;0.20;99.90
31309;DHT22;17936;52.446;10.840;2023-03-09T02:56:56;0.30;99.90
31309;DHT22;17936;52.446;10.840;2023-03-09T02:59:21;0.20;99.90
31309;DHT22;17936;52.446;10.840;2023-03-09T03:01:47;0.30;99.90
31309;DHT22;17936;52.446;10.840;2023-03-09T03:04:13;0.30;99.90
31309;DHT22;17936;52.446;10.840;2023-03-09T03:06:38;0.30;99.90
31309;DHT22;17936;52.446;10.840;2023-03-09T03:09:05;0.30;99.90
31309;DHT22;17936;52.446;10.840;2023-03-09T03:11:31;0.30;99.90
31309;DHT22;17936;52.446;10.840;2023-03-09T03:13:56;0.30;99.90
31309;DHT22;17936;52.446;10.840;2023-03-09T03:16:22;0.30;99.90
31309;DHT22;17936;52.446;10.840;2023-03-09T03:18:47;0.30;99.90
31309;DHT22;17936;52.446;10.840;2023-03-09T03:21:13;0.30;99.90
31309;DHT22;17936;52.446;10.840;2023-03-09T03:23:38;0.30;99.90
31309;DHT22;17936;52.446;10.840;2023-03-09T03:26:06;0.30;99.90
31309;DHT22;17936;52.446;10.840;2023-03-09T03:28:32;0.30;99.90
31309;DHT22;17936;52.446;10.840;2023-03-09T03:30:57;0.30;99.90
31309;DHT22;17936;52.446;10.840;2023-03-09T03:33:23;0.30;99.90
31309;DHT22;17936;52.446;10.840;2023-03-09T03:35:49;0.30;99.90
31309;DHT22;17936;52.446;10.840;2023-03-09T03:38:14;0.30;99.90
31309;DHT22;17936;52.446;10.840;2023-03-09T03:40:40;0.30;99.90
31309;DHT22;17936;52.446;10.840;2023-03-09T03:43:05;0.30;99.90
31309;DHT22;17936;52.446;10.840;2023-03-09T03:45:31;0.30;99.90
31309;DHT22;17936;52.446;10.840;2023-03-09T03:47:56;0.30;99.90
31309;DHT22;17936;52.446;10.840;2023-03-09T03:50:22;0.30;99.90
31309;DHT22;17936;52.446;10.840;2023-03-09T03:52:47;0.30;99.90
31309;DHT22;17936;52.446;10.840;2023-03-09T03:55:13;0.30;99.90
31309;DHT22;17936;52.446;10.840;2023-03-09T03:57:39;0.30;99.90
31309;DHT22;17936;52.446;10.840;2023-03-09T04:00:05;0.30;99.90
31309;DHT22;17936;52.446;10.840;2023-03-09T04:02:35;0.30;99.90
31309;DHT22;17936;52.446;10.840;2023-03-09T04:05:00;0.30;99.90
31309;DHT22;17936;52.446;10.840;2023-03-09T04:07:26;0.30;99.90
31309;DHT22;17936;52.446;10.840;2023-03-09T04:09:54;0.30;99.90
31309;DHT22;17936;52.446;10.840;2023-03-09T04:12:19;0.30;99.90
31309;DHT22;17936;52.446;10.840;2023-03-09T04:14:45;0.30;99.90
31309;DHT22;17936;52.446;10.840;2023-03-09T04:17:10;0.30;99.90
31309;DHT22;17936;52.446;10.840;2023-03-09T04:19:36;0.30;99.90
31309;DHT22;17936;52.446;10.840;2023-03-09T04:22:02;0.30;99.90
31309;DHT22;17936;52.446;10.840;2023-03-09T04:24:27;0.30;99.90
31309;DHT22;17936;52.446;10.840;2023-03-09T04:26:53;0.30;99.90
31309;DHT22;17936;52.446;10.840;2023-03-09T04:29:19;0.30;99.90
31309;DHT22;17936;52.446;10.840;2023-03-09T04:31:44;0.30;99.90
31309;DHT22;17936;52.446;10.840;2023-03-09T04:34:11;0.30;99.90
31309;DHT22;17936;52.446;10.840;2023-03-09T04:36:36;0.30;99.90
31309;DHT22;17936;52.446;10.840;2023-03-09T04:39:02;0.30;99.90
31309;DHT22;17936;52.446;10.840;2023-03-09T04:41:30;0.30;99.90
31309;DHT22;17936;52.446;10.840;2023-03-09T04:43:55;0.30;99.90
31309;DHT22;17936;52.446;10.840;2023-03-09T04:46:21;0.40;99.90
31309;DHT22;17936;52.446;10.840;2023-03-09T04:48:47;0.30;99.90
31309;DHT22;17936;52.446;10.840;2023-03-09T04:51:12;0.30;99.90
31309;DHT22;17936;52.446;10.840;2023-03-09T04:53:38;0.30;99.90
31309;DHT22;17936;52.446;10.840;2023-03-09T04:56:03;0.30;99.90
31309;DHT22;17936;52.446;10.840;2023-03-09T04:58:29;0.30;99.90
31309;DHT22;17936;52.446;10.840;2023-03-09T05:00:54;0.40;99.90
31309;DHT22;17936;52.446;10.840;2023-03-09T05:03:20;0.30;99.90
31309;DHT22;17936;52.446;10.840;2023-03-09T05:05:46;0.40;99.90
31309;DHT22;17936;52.446;10.840;2023-03-09T05:08:12;0.40;99.90
31309;DHT22;17936;52.446;10.840;2023-03-09T05:10:37;0.40;99.90
31309;DHT22;17936;52.446;10.840;2023-03-09T05:13:03;0.40;99.90
31309;DHT22;17936;52.446;10.840;2023-03-09T05:15:29;0.30;99.90
31309;DHT22;17936;52.446;10.840;2023-03-09T05:17:54;0.40;99.90
31309;DHT22;17936;52.446;10.840;2023-03-09T05:20:20;0.40;99.90
31309;DHT22;17936;52.446;10.840;2023-03-09T05:22:45;0.40;99.90
31309;DHT22;17936;52.446;10.840;2023-03-09T05:25:11;0.40;99.90
31309;DHT22;17936;52.446;10.840;2023-03-09T05:27:36;0.40;99.90
31309;DHT22;17936;52.446;10.840;2023-03-09T05:30:03;0.40;99.90
31309;DHT22;17936;52.446;10.840;2023-03-09T05:32:28;0.40;99.90
31309;DHT22;17936;52.446;10.840;2023-03-09T05:34:54;0.40;99.90
31309;DHT22;17936;52.446;10.840;2023-03-09T05:37:19;0.40;99.90
31309;DHT22;17936;52.446;10.840;2023-03-09T05:39:45;0.30;99.90
31309;DHT22;17936;52.446;10.840;2023-03-09T05:42:10;0.40;99.90
31309;DHT22;17936;52.446;10.840;2023-03-09T05:44:36;0.40;99.90
31309;DHT22;17936;52.446;10.840;2023-03-09T05:47:01;0.30;99.90
31309;DHT22;17936;52.446;10.840;2023-03-09T05:49:27;0.40;99.90
31309;DHT22;17936;52.446;10.840;2023-03-09T05:51:53;0.30;99.90
31309;DHT22;17936;52.446;10.840;2023-03-09T05:54:19;0.30;99.90
31309;DHT22;17936;52.446;10.840;2023-03-09T05:56:45;0.30;99.90
31309;DHT22;17936;52.446;10.840;2023-03-09T05:59:10;0.30;99.90
31309;DHT22;17936;52.446;10.840;2023-03-09T06:01:36;0.30;99.90
31309;DHT22;17936;52.446;10.840;2023-03-09T06:04:02;0.30;99.90
31309;DHT22;17936;52.446;10.840;2023-03-09T06:06:28;0.30;99.90
31309;DHT22;17936;52.446;10.840;2023-03-09T06:08:55;0.30;99.90
31309;DHT22;17936;52.446;10.840;2023-03-09T06:11:20;0.40;99.90
31309;DHT22;17936;52.446;10.840;2023-03-09T06:13:46;0.40;99.90
31309;DHT22;17936;52.446;10.840;2023-03-09T06:16:14;0.30;99.90
31309;DHT22;17936;52.446;10.840;2023-03-09T06:18:40;0.40;99.90
31309;DHT22;17936;52.446;10.840;2023-03-09T06:21:07;0.40;99.90
31309;DHT22;17936;52.446;10.840;2023-03-09T06:23:33;0.40;99.90
31309;DHT22;17936;52.446;10.840;2023-03-09T06:26:04;0.40;99.90
31309;DHT22;17936;52.446;10.840;2023-03-09T06:28:30;0.40;99.90
31309;DHT22;17936;52.446;10.840;2023-03-09T06:30:56;0.40;99.90
31309;DHT22;17936;52.446;10.840;2023-03-09T06:33:21;0.40;99.90
31309;DHT22;17936;52.446;10.840;2023-03-09T06:35:47;0.50;99.90
31309;DHT22;17936;52.446;10.840;2023-03-09T06:38:12;0.50;99.90
31309;DHT22;17936;52.446;10.840;2023-03-09T06:40:38;0.40;99.90
31309;DHT22;17936;52.446;10.840;2023-03-09T06:43:04;0.40;99.90
31309;DHT22;17936;52.446;10.840;2023-03-09T06:45:29;0.50;99.90
31309;DHT22;17936;52.446;10.840;2023-03-09T06:47:56;0.50;99.90
31309;DHT22;17936;52.446;10.840;2023-03-09T06:50:23;0.50;99.90
31309;DHT22;17936;52.446;10.840;2023-03-09T06:52:49;0.50;99.90
31309;DHT22;17936;52.446;10.840;2023-03-09T06:55:15;0.50;99.90
31309;DHT22;17936;52.446;10.840;2023-03-09T06:57:40;0.50;99.90
31309;DHT22;17936;52.446;10.840;2023-03-09T07:00:06;0.50;99.90
31309;DHT22;17936;52.446;10.840;2023-03-09T07:02:33;0.50;99.90
31309;DHT22;17936;52.446;10.840;2023-03-09T07:04:59;0.50;99.90
31309;DHT22;17936;52.446;10.840;2023-03-09T07:07:24;0.50;99.90
31309;DHT22;17936;52.446;10.840;2023-03-09T07:09:50;0.50;99.90
31309;DHT22;17936;52.446;10.840;2023-03-09T07:12:15;0.50;99.90
31309;DHT22;17936;52.446;10.840;2023-03-09T07:14:41;0.50;99.90
31309;DHT22;17936;52.446;10.840;2023-03-09T07:17:12;0.50;99.90
31309;DHT22;17936;52.446;10.840;2023-03-09T07:19:38;0.50;99.90
31309;DHT22;17936;52.446;10.840;2023-03-09T07:22:04;0.50;99.90
31309;DHT22;17936;52.446;10.840;2023-03-09T07:24:34;0.50;99.90
31309;DHT22;17936;52.446;10.840;2023-03-09T07:26:59;0.60;99.90
31309;DHT22;17936;52.446;10.840;2023-03-09T07:29:25;0.50;99.90
31309;DHT22;17936;52.446;10.840;2023-03-09T07:31:51;0.50;99.90
31309;DHT22;17936;52.446;10.840;2023-03-09T07:34:16;0.50;99.90
31309;DHT22;17936;52.446;10.840;2023-03-09T07:36:42;0.50;99.90
31309;DHT22;17936;52.446;10.840;2023-03-09T07:39:07;0.50;99.90
31309;DHT22;17936;52.446;10.840;2023-03-09T07:41:33;0.60;99.90
31309;DHT22;17936;52.446;10.840;2023-03-09T07:43:58;0.60;99.90
31309;DHT22;17936;52.446;10.840;2023-03-09T07:46:24;0.60;99.90
31309;DHT22;17936;52.446;10.840;2023-03-09T07:48:50;0.60;99.90
31309;DHT22;17936;52.446;10.840;2023-03-09T07:51:17;0.60;99.90
31309;DHT22;17936;52.446;10.840;2023-03-09T07:53:43;0.60;99.90
31309;DHT22;17936;52.446;10.840;2023-03-09T07:56:09;0.60;99.90
31309;DHT22;17936;52.446;10.840;2023-03-09T07:58:36;0.60;99.90
31309;DHT22;17936;52.446;10.840;2023-03-09T08:01:03;0.60;99.90
31309;DHT22;17936;52.446;10.840;2023-03-09T08:03:29;0.60;99.90
31309;DHT22;17936;52.446;10.840;2023-03-09T08:05:55;0.60;99.90
31309;DHT22;17936;52.446;10.840;2023-03-09T08:08:25;0.60;99.90
31309;DHT22;17936;52.446;10.840;2023-03-09T08:10:54;0.60;99.90
31309;DHT22;17936;52.446;10.840;2023-03-09T08:13:20;0.60;99.90
31309;DHT22;17936;52.446;10.840;2023-03-09T08:15:47;0.60;99.90
31309;DHT22;17936;52.446;10.840;2023-03-09T08:18:13;0.60;99.90
31309;DHT22;17936;52.446;10.840;2023-03-09T08:20:39;0.60;99.90
31309;DHT22;17936;52.446;10.840;2023-03-09T08:23:04;0.70;99.90
31309;DHT22;17936;52.446;10.840;2023-03-09T08:25:30;0.60;99.90
31309;DHT22;17936;52.446;10.840;2023-03-09T08:27:56;0.70;99.90
31309;DHT22;17936;52.446;10.840;2023-03-09T08:30:22;0.70;99.90
31309;DHT22;17936;52.446;10.840;2023-03-09T08:32:49;0.60;99.90
31309;DHT22;17936;52.446;10.840;2023-03-09T08:35:19;0.70;99.90
31309;DHT22;17936;52.446;10.840;2023-03-09T08:37:46;0.60;99.90
31309;DHT22;17936;52.446;10.840;2023-03-09T08:40:12;0.60;99.90
31309;DHT22;17936;52.446;10.840;2023-03-09T08:42:39;0.70;99.90
31309;DHT22;17936;52.446;10.840;2023-03-09T08:45:05;0.60;99.90
31309;DHT22;17936;52.446;10.840;2023-03-09T08:47:31;0.70;99.90
31309;DHT22;17936;52.446;10.840;2023-03-09T08:49:57;0.70;99.90
31309;DHT22;17936;52.446;10.840;2023-03-09T08:52:23;0.70;99.90
31309;DHT22;17936;52.446;10.840;2023-03-09T08:54:48;0.70;99.90
31309;DHT22;17936;52.446;10.840;2023-03-09T08:57:15;0.70;99.90
31309;DHT22;17936;52.446;10.840;2023-03-09T08:59:41;0.80;99.90
31309;DHT22;17936;52.446;10.840;2023-03-09T09:02:12;0.80;99.90
31309;DHT22;17936;52.446;10.840;2023-03-09T09:04:43;0.80;99.90
31309;DHT22;17936;52.446;10.840;2023-03-09T09:07:09;0.80;99.90
31309;DHT22;17936;52.446;10.840;2023-03-09T09:09:36;0.80;99.90
31309;DHT22;17936;52.446;10.840;2023-03-09T09:12:02;0.80;99.90
31309;DHT22;17936;52.446;10.840;2023-03-09T09:14:29;0.80;99.90
31309;DHT22;17936;52.446;10.840;2023-03-09T09:16:54;0.80;99.90
31309;DHT22;17936;52.446;10.840;2023-03-09T09:19:20;0.80;99.90
31309;DHT22;17936;52.446;10.840;2023-03-09T09:21:47;0.80;99.90
31309;DHT22;17936;52.446;10.840;2023-03-09T09:24:13;0.80;99.90
31309;DHT22;17936;52.446;10.840;2023-03-09T09:26:39;0.80;99.90
31309;DHT22;17936;52.446;10.840;2023-03-09T09:29:06;0.90;99.90
31309;DHT22;17936;52.446;10.840;2023-03-09T09:31:32;0.90;99.90
31309;DHT22;17936;52.446;10.840;2023-03-09T09:33:58;0.90;99.90
31309;DHT22;17936;52.446;10.840;2023-03-09T09:36:24;0.80;99.90
31309;DHT22;17936;52.446;10.840;2023-03-09T09:38:51;0.80;99.90
31309;DHT22;17936;52.446;10.840;2023-03-09T09:41:38;0.90;99.90
31309;DHT22;17936;52.446;10.840;2023-03-09T09:44:09;0.90;99.90
31309;DHT22;17936;52.446;10.840;2023-03-09T09:46:38;0.90;99.90
31309;DHT22;17936;52.446;10.840;2023-03-09T09:49:05;0.90;99.90
31309;DHT22;17936;52.446;10.840;2023-03-09T09:56:47;0.90;99.90
31309;DHT22;17936;52.446;10.840;2023-03-09T10:04:46;1.00;99.90
31309;DHT22;17936;52.446;10.840;2023-03-09T10:07:15;1.00;99.90
31309;DHT22;17936;52.446;10.840;2023-03-09T10:09:44;1.00;99.90
31309;DHT22;17936;52.446;10.840;2023-03-09T10:12:14;1.10;99.90
31309;DHT22;17936;52.446;10.840;2023-03-09T10:17:43;1.10;99.90
31309;DHT22;17936;52.446;10.840;2023-03-09T10:20:39;1.00;99.90
31309;DHT22;17936;52.446;10.840;2023-03-09T10:23:22;1.10;99.90
31309;DHT22;17936;52.446;10.840;2023-03-09T10:25:52;1.00;99.90
31309;DHT22;17936;52.446;10.840;2023-03-09T10:28:21;1.10;99.90
31309;DHT22;17936;52.446;10.840;2023-03-09T10:36:11;1.10;99.90
31309;DHT22;17936;52.446;10.840;2023-03-09T10:38:39;1.10;99.90
31309;DHT22;17936;52.446;10.840;2023-03-09T10:41:17;1.10;99.90
31309;DHT22;17936;52.446;10.840;2023-03-09T10:43:44;1.20;99.90
31309;DHT22;17936;52.446;10.840;2023-03-09T10:46:18;1.20;99.90
31309;DHT22;17936;52.446;10.840;2023-03-09T10:48:46;1.30;99.90
31309;DHT22;17936;52.446;10.840;2023-03-09T10:51:25;1.20;99.90
31309;DHT22;17936;52.446;10.840;2023-03-09T10:53:51;1.30;99.90
31309;DHT22;17936;52.446;10.840;2023-03-09T10:56:26;1.20;99.90
31309;DHT22;17936;52.446;10.840;2023-03-09T11:01:38;1.20;99.90
31309;DHT22;17936;52.446;10.840;2023-03-09T11:06:59;1.30;99.90
31309;DHT22;17936;52.446;10.840;2023-03-09T11:09:32;1.30;99.90
31309;DHT22;17936;52.446;10.840;2023-03-09T11:12:25;1.40;99.90
31309;DHT22;17936;52.446;10.840;2023-03-09T11:15:00;1.30;99.90
31309;DHT22;17936;52.446;10.840;2023-03-09T11:17:37;1.30;99.90
31309;DHT22;17936;52.446;10.840;2023-03-09T11:22:40;1.40;99.90
31309;DHT22;17936;52.446;10.840;2023-03-09T11:25:42;1.40;99.90
31309;DHT22;17936;52.446;10.840;2023-03-09T11:28:17;1.40;99.90
31309;DHT22;17936;52.446;10.840;2023-03-09T11:30:45;1.30;99.90
31309;DHT22;17936;52.446;10.840;2023-03-09T11:33:18;1.40;99.90
31309;DHT22;17936;52.446;10.840;2023-03-09T11:35:46;1.40;99.90
31309;DHT22;17936;52.446;10.840;2023-03-09T11:38:14;1.40;99.90
31309;DHT22;17936;52.446;10.840;2023-03-09T11:40:40;1.30;99.90
31309;DHT22;17936;52.446;10.840;2023-03-09T11:43:09;1.30;99.90
31309;DHT22;17936;52.446;10.840;2023-03-09T11:45:39;1.40;99.90
31309;DHT22;17936;52.446;10.840;2023-03-09T11:48:26;1.40;99.90
31309;DHT22;17936;52.446;10.840;2023-03-09T11:51:26;1.40;99.90
31309;DHT22;17936;52.446;10.840;2023-03-09T11:56:31;1.50;99.90
31309;DHT22;17936;52.446;10.840;2023-03-09T11:59:19;1.40;99.90
31309;DHT22;17936;52.446;10.840;2023-03-09T12:04:44;1.40;99.90
31309;DHT22;17936;52.446;10.840;2023-03-09T12:07:27;1.50;99.90
31309;DHT22;17936;52.446;10.840;2023-03-09T12:15:27;1.50;99.90
31309;DHT22;17936;52.446;10.840;2023-03-09T12:17:58;1.40;99.90
31309;DHT22;17936;52.446;10.840;2023-03-09T12:20:32;1.50;99.90
31309;DHT22;17936;52.446;10.840;2023-03-09T12:22:58;1.60;99.90
31309;DHT22;17936;52.446;10.840;2023-03-09T12:25:25;1.50;99.90
31309;DHT22;17936;52.446;10.840;2023-03-09T12:27:58;1.50;99.90
31309;DHT22;17936;52.446;10.840;2023-03-09T12:30:33;1.50;99.90
31309;DHT22;17936;52.446;10.840;2023-03-09T12:33:00;1.50;99.90
31309;DHT22;17936;52.446;10.840;2023-03-09T12:37:55;1.50;99.90
31309;DHT22;17936;52.446;10.840;2023-03-09T12:42:56;1.50;99.90
31309;DHT22;17936;52.446;10.840;2023-03-09T12:45:28;1.40;99.90
31309;DHT22;17936;52.446;10.840;2023-03-09T12:48:00;1.50;99.90
31309;DHT22;17936;52.446;10.840;2023-03-09T12:53:18;1.50;99.90
31309;DHT22;17936;52.446;10.840;2023-03-09T12:55:49;1.60;99.90
31309;DHT22;17936;52.446;10.840;2023-03-09T13:01:01;1.70;99.90
31309;DHT22;17936;52.446;10.840;2023-03-09T13:09:05;1.70;99.90
31309;DHT22;17936;52.446;10.840;2023-03-09T13:11:48;1.60;99.90
31309;DHT22;17936;52.446;10.840;2023-03-09T13:16:56;1.70;99.90
31309;DHT22;17936;52.446;10.840;2023-03-09T13:29:55;1.70;99.90
31309;DHT22;17936;52.446;10.840;2023-03-09T13:32:32;1.60;99.90
31309;DHT22;17936;52.446;10.840;2023-03-09T13:34:59;1.70;99.90
31309;DHT22;17936;52.446;10.840;2023-03-09T13:37:29;1.70;99.90
31309;DHT22;17936;52.446;10.840;2023-03-09T13:40:00;1.70;99.90
31309;DHT22;17936;52.446;10.840;2023-03-09T13:42:28;1.70;99.90
31309;DHT22;17936;52.446;10.840;2023-03-09T13:44:55;1.60;99.90
31309;DHT22;17936;52.446;10.840;2023-03-09T13:47:28;1.60;99.90
31309;DHT22;17936;52.446;10.840;2023-03-09T13:49:55;1.60;99.90
31309;DHT22;17936;52.446;10.840;2023-03-09T13:52:21;1.60;99.90
31309;DHT22;17936;52.446;10.840;2023-03-09T13:54:50;1.90;99.90
31309;DHT22;17936;52.446;10.840;2023-03-09T13:57:24;1.80;99.90
31309;DHT22;17936;52.446;10.840;2023-03-09T14:02:18;1.90;99.90
31309;DHT22;17936;52.446;10.840;2023-03-09T14:07:23;1.70;99.90
31309;DHT22;17936;52.446;10.840;2023-03-09T14:09:59;1.70;99.90
31309;DHT22;17936;52.446;10.840;2023-03-09T14:12:36;1.70;99.90
31309;DHT22;17936;52.446;10.840;2023-03-09T14:15:05;1.70;99.90
31309;DHT22;17936;52.446;10.840;2023-03-09T14:17:32;1.70;99.90
31309;DHT22;17936;52.446;10.840;2023-03-09T14:19:59;1.70;99.90
31309;DHT22;17936;52.446;10.840;2023-03-09T14:22:29;1.70;99.90
31309;DHT22;17936;52.446;10.840;2023-03-09T14:24:57;1.60;99.90
31309;DHT22;17936;52.446;10.840;2023-03-09T14:27:31;1.60;99.90
31309;DHT22;17936;52.446;10.840;2023-03-09T14:29:58;1.60;99.90
31309;DHT22;17936;52.446;10.840;2023-03-09T14:38:32;1.80;99.90
31309;DHT22;17936;52.446;10.840;2023-03-09T14:40:59;1.80;99.90
31309;DHT22;17936;52.446;10.840;2023-03-09T14:45:51;1.60;99.90
31309;DHT22;17936;52.446;10.840;2023-03-09T14:48:17;1.70;99.90
31309;DHT22;17936;52.446;10.840;2023-03-09T14:50:43;1.70;99.90
31309;DHT22;17936;52.446;10.840;2023-03-09T14:53:13;1.70;99.90
31309;DHT22;17936;52.446;10.840;2023-03-09T14:55:39;1.60;99.90
31309;DHT22;17936;52.446;10.840;2023-03-09T14:58:12;1.60;99.90
31309;DHT22;17936;52.446;10.840;2023-03-09T15:00:39;1.60;99.90
31309;DHT22;17936;52.446;10.840;2023-03-09T15:03:06;1.60;99.90
31309;DHT22;17936;52.446;10.840;2023-03-09T15:05:32;1.60;99.90
31309;DHT22;17936;52.446;10.840;2023-03-09T15:07:57;1.60;99.90
31309;DHT22;17936;52.446;10.840;2023-03-09T15:10:23;1.60;99.90
31309;DHT22;17936;52.446;10.840;2023-03-09T15:12:50;1.60;99.90
31309;DHT22;17936;52.446;10.840;2023-03-09T15:15:22;1.50;99.90
31309;DHT22;17936;52.446;10.840;2023-03-09T15:17:48;1.50;99.90
31309;DHT22;17936;52.446;10.840;2023-03-09T15:20:16;1.50;99.90
31309;DHT22;17936;52.446;10.840;2023-03-09T15:22:42;1.50;99.90
31309;DHT22;17936;52.446;10.840;2023-03-09T15:25:13;1.50;99.90
31309;DHT22;17936;52.446;10.840;2023-03-09T15:27:39;1.50;99.90
31309;DHT22;17936;52.446;10.840;2023-03-09T15:30:05;1.50;99.90
31309;DHT22;17936;52.446;10.840;2023-03-09T15:32:31;1.50;99.90
31309;DHT22;17936;52.446;10.840;2023-03-09T15:34:57;1.50;99.90
31309;DHT22;17936;52.446;10.840;2023-03-09T15:37:22;1.50;99.90
31309;DHT22;17936;52.446;10.840;2023-03-09T15:39:48;1.50;99.90
31309;DHT22;17936;52.446;10.840;2023-03-09T15:42:13;1.60;99.90
31309;DHT22;17936;52.446;10.840;2023-03-09T15:44:39;1.60;99.90
31309;DHT22;17936;52.446;10.840;2023-03-09T15:47:04;1.60;99.90
31309;DHT22;17936;52.446;10.840;2023-03-09T15:49:30;1.50;99.90
31309;DHT22;17936;52.446;10.840;2023-03-09T15:51:55;1.50;99.90
31309;DHT22;17936;52.446;10.840;2023-03-09T15:54:21;1.50;99.90
31309;DHT22;17936;52.446;10.840;2023-03-09T15:56:46;1.50;99.90
31309;DHT22;17936;52.446;10.840;2023-03-09T15:59:12;1.60;99.90
31309;DHT22;17936;52.446;10.840;2023-03-09T16:01:37;1.50;99.90
31309;DHT22;17936;52.446;10.840;2023-03-09T16:04:05;1.50;99.90
31309;DHT22;17936;52.446;10.840;2023-03-09T16:06:30;1.50;99.90
31309;DHT22;17936;52.446;10.840;2023-03-09T16:08:56;1.50;99.90
31309;DHT22;17936;52.446;10.840;2023-03-09T16:11:21;1.40;99.90
31309;DHT22;17936;52.446;10.840;2023-03-09T16:13:47;1.40;99.90
31309;DHT22;17936;52.446;10.840;2023-03-09T16:16:14;1.40;99.90
31309;DHT22;17936;52.446;10.840;2023-03-09T16:18:40;1.40;99.90
31309;DHT22;17936;52.446;10.840;2023-03-09T16:21:06;1.30;99.90
31309;DHT22;17936;52.446;10.840;2023-03-09T16:23:32;1.30;99.90
31309;DHT22;17936;52.446;10.840;2023-03-09T16:25:58;1.30;99.90
31309;DHT22;17936;52.446;10.840;2023-03-09T16:28:25;1.30;99.90
31309;DHT22;17936;52.446;10.840;2023-03-09T16:30:51;1.30;99.90
31309;DHT22;17936;52.446;10.840;2023-03-09T16:33:17;1.30;99.90
31309;DHT22;17936;52.446;10.840;2023-03-09T16:35:43;1.30;99.90
31309;DHT22;17936;52.446;10.840;2023-03-09T16:38:10;1.20;99.90
31309;DHT22;17936;52.446;10.840;2023-03-09T16:40:37;1.20;99.90
31309;DHT22;17936;52.446;10.840;2023-03-09T16:43:03;1.20;99.90
31309;DHT22;17936;52.446;10.840;2023-03-09T16:45:29;1.10;99.90
31309;DHT22;17936;52.446;10.840;2023-03-09T16:47:54;1.10;99.90
31309;DHT22;17936;52.446;10.840;2023-03-09T16:50:21;1.10;99.90
31309;DHT22;17936;52.446;10.840;2023-03-09T16:52:48;1.10;99.90
31309;DHT22;17936;52.446;10.840;2023-03-09T16:55:16;1.10;99.90
31309;DHT22;17936;52.446;10.840;2023-03-09T16:57:43;1.00;99.90
31309;DHT22;17936;52.446;10.840;2023-03-09T17:00:12;1.00;99.90
31309;DHT22;17936;52.446;10.840;2023-03-09T17:02:39;1.00;99.90